createdAt,value
2023-02-15T00:00:19.278Z,2.90
2023-02-15T00:02:47.926Z,3.00
2023-02-15T00:05:16.582Z,3.00
2023-02-15T00:07:45.098Z,3.10
2023-02-15T00:10:13.577Z,3.10
2023-02-15T00:12:41.995Z,3.20
2023-02-15T00:15:13.609Z,3.20
2023-02-15T00:17:42.013Z,3.20
2023-02-15T00:20:11.930Z,3.20
2023-02-15T00:22:40.546Z,3.20
2023-02-15T00:25:09.297Z,3.20
2023-02-15T00:27:37.756Z,3.20
2023-02-15T00:30:07.786Z,3.20
2023-02-15T00:32:37.643Z,3.20
2023-02-15T00:35:07.837Z,3.10
2023-02-15T00:37:36.204Z,3.00
2023-02-15T00:40:05.157Z,3.00
2023-02-15T00:42:33.642Z,3.10
2023-02-15T00:45:02.064Z,3.10
2023-02-15T00:47:30.466Z,3.20
2023-02-15T00:50:00.225Z,3.20
2023-02-15T00:52:28.883Z,3.20
2023-02-15T00:54:57.327Z,3.30
2023-02-15T00:57:25.767Z,3.30
2023-02-15T00:59:54.245Z,3.40
2023-02-15T01:02:22.677Z,3.40
2023-02-15T01:04:51.078Z,3.50
2023-02-15T01:07:20.830Z,3.50
2023-02-15T01:09:49.296Z,3.50
2023-02-15T01:12:17.881Z,3.50
2023-02-15T01:14:46.283Z,3.50
2023-02-15T01:17:14.725Z,3.50
2023-02-15T01:19:43.166Z,3.60
2023-02-15T01:22:11.671Z,3.60
2023-02-15T01:24:41.481Z,3.60
2023-02-15T01:27:09.917Z,3.70
2023-02-15T01:29:38.331Z,3.70
2023-02-15T01:32:06.843Z,3.70
2023-02-15T01:34:35.540Z,3.80
2023-02-15T01:37:04.067Z,3.80
2023-02-15T01:39:32.563Z,3.80
2023-02-15T01:42:02.405Z,3.80
2023-02-15T01:44:49.490Z,3.80
2023-02-15T01:47:20.476Z,3.80
2023-02-15T01:49:49.873Z,3.80
2023-02-15T01:52:20.213Z,3.80
2023-02-15T01:54:49.488Z,3.90
2023-02-15T01:57:21.853Z,3.90
2023-02-15T01:59:54.708Z,3.90
2023-02-15T02:02:25.275Z,3.90
2023-02-15T02:04:56.567Z,3.90
2023-02-15T02:07:28.715Z,3.90
2023-02-15T02:09:57.247Z,3.90
2023-02-15T02:12:27.602Z,3.90
2023-02-15T02:14:56.777Z,3.90
2023-02-15T02:17:34.688Z,3.90
2023-02-15T02:20:20.823Z,4.00
2023-02-15T02:23:21.246Z,4.00
2023-02-15T02:26:08.580Z,4.00
2023-02-15T02:29:11.529Z,4.00
2023-02-15T02:32:10.278Z,4.10
2023-02-15T02:34:44.904Z,4.10
2023-02-15T02:37:20.822Z,4.10
2023-02-15T02:39:53.668Z,4.10
2023-02-15T02:42:27.904Z,4.10
2023-02-15T02:44:59.243Z,4.10
2023-02-15T02:47:33.192Z,4.10
2023-02-15T02:50:05.644Z,4.10
2023-02-15T02:52:40.305Z,4.10
2023-02-15T02:55:12.032Z,4.10
2023-02-15T02:57:44.427Z,4.20
2023-02-15T03:00:16.653Z,4.20
2023-02-15T03:02:47.247Z,4.20
2023-02-15T03:05:20.664Z,4.20
2023-02-15T03:07:51.263Z,4.30
2023-02-15T03:10:23.541Z,4.30
2023-02-15T03:12:52.349Z,4.30
2023-02-15T03:15:23.192Z,4.30
2023-02-15T03:17:55.805Z,4.20
2023-02-15T03:20:28.892Z,4.30
2023-02-15T03:23:00.511Z,4.20
2023-02-15T03:25:32.746Z,4.20
2023-02-15T03:28:04.567Z,4.10
2023-02-15T03:30:33.708Z,4.20
2023-02-15T03:33:02.600Z,4.20
2023-02-15T03:35:36.192Z,4.20
2023-02-15T03:38:06.120Z,4.20
2023-02-15T03:40:54.635Z,4.20
2023-02-15T03:43:27.355Z,4.30
2023-02-15T03:45:59.759Z,4.30
2023-02-15T03:48:31.108Z,4.40
2023-02-15T03:51:22.056Z,4.40
2023-02-15T03:53:51.658Z,4.40
2023-02-15T03:56:20.091Z,4.50
2023-02-15T03:59:06.079Z,4.50
2023-02-15T04:01:54.680Z,4.50
2023-02-15T04:04:25.698Z,4.50
2023-02-15T04:06:55.538Z,4.60
2023-02-15T04:09:41.381Z,4.60
2023-02-15T04:12:10.132Z,4.60
2023-02-15T04:14:55.963Z,4.60
2023-02-15T04:17:24.487Z,4.60
2023-02-15T04:20:10.763Z,4.60
2023-02-15T04:22:57.944Z,4.60
2023-02-15T04:25:26.549Z,4.60
2023-02-15T04:27:56.155Z,4.60
2023-02-15T04:30:26.340Z,4.60
2023-02-15T04:32:55.885Z,4.60
2023-02-15T04:35:24.400Z,4.70
2023-02-15T04:37:54.201Z,4.60
2023-02-15T04:40:22.627Z,4.70
2023-02-15T04:42:51.140Z,4.70
2023-02-15T04:45:19.808Z,4.70
2023-02-15T04:47:48.222Z,4.70
2023-02-15T04:50:16.725Z,4.70
2023-02-15T04:52:45.228Z,4.80
2023-02-15T04:55:15.348Z,4.80
2023-02-15T04:57:43.848Z,4.80
2023-02-15T05:00:13.092Z,4.80
2023-02-15T05:02:41.469Z,4.90
2023-02-15T05:05:13.930Z,5.20
2023-02-15T05:07:42.483Z,5.70
2023-02-15T05:10:11.490Z,6.20
2023-02-15T05:12:41.351Z,6.40
2023-02-15T05:15:10.809Z,6.70
2023-02-15T05:17:39.137Z,6.90
2023-02-15T05:20:08.530Z,7.10
2023-02-15T05:22:36.948Z,7.20
2023-02-15T05:25:22.878Z,7.30
2023-02-15T05:28:10.151Z,7.40
2023-02-15T05:30:40.687Z,7.50
2023-02-15T05:33:09.313Z,7.40
2023-02-15T05:35:37.950Z,7.30
2023-02-15T05:38:06.504Z,7.30
2023-02-15T05:40:35.019Z,7.20
2023-02-15T05:43:04.887Z,7.10
2023-02-15T05:45:33.358Z,7.10
2023-02-15T05:48:01.764Z,7.10
2023-02-15T05:50:30.272Z,7.20
2023-02-15T05:52:58.705Z,7.30
2023-02-15T05:55:27.100Z,7.40
2023-02-15T05:57:55.518Z,7.30
2023-02-15T06:00:26.316Z,7.30
2023-02-15T06:02:54.974Z,7.30
2023-02-15T06:05:23.466Z,7.40
2023-02-15T06:07:51.916Z,7.30
2023-02-15T06:10:20.479Z,7.20
2023-02-15T06:12:48.900Z,7.10
2023-02-15T06:15:17.463Z,7.00
2023-02-15T06:17:47.345Z,7.00
2023-02-15T06:20:15.802Z,7.00
2023-02-15T06:22:44.336Z,7.10
2023-02-15T06:25:12.900Z,7.10
2023-02-15T06:27:43.947Z,7.10
2023-02-15T06:30:13.887Z,7.10
2023-02-15T06:32:42.585Z,7.00
2023-02-15T06:35:12.571Z,7.10
2023-02-15T06:37:41.067Z,7.10
2023-02-15T06:40:10.830Z,7.10
2023-02-15T06:42:39.305Z,7.10
2023-02-15T06:45:08.637Z,6.30
2023-02-15T06:47:37.350Z,5.70
2023-02-15T06:50:07.235Z,5.10
2023-02-15T06:52:37.143Z,4.80
2023-02-15T06:55:06.008Z,4.60
2023-02-15T06:57:34.606Z,4.30
2023-02-15T07:00:03.296Z,3.80
2023-02-15T07:02:32.249Z,3.70
2023-02-15T07:05:00.728Z,3.40
2023-02-15T07:07:29.309Z,2.90
2023-02-15T07:09:59.122Z,2.70
2023-02-15T07:12:45.532Z,2.70
2023-02-15T07:15:16.200Z,2.60
2023-02-15T07:17:45.228Z,2.60
2023-02-15T07:20:16.361Z,2.70
2023-02-15T07:22:44.973Z,2.60
2023-02-15T07:25:15.414Z,2.50
2023-02-15T07:27:44.763Z,2.50
2023-02-15T07:30:15.140Z,2.40
2023-02-15T07:32:57.701Z,2.50
2023-02-15T07:35:26.244Z,2.50
2023-02-15T07:37:54.851Z,2.30
2023-02-15T07:40:25.263Z,2.40
2023-02-15T07:42:55.762Z,2.50
2023-02-15T07:45:24.556Z,2.60
2023-02-15T07:47:53.031Z,2.60
2023-02-15T07:50:21.453Z,2.70
2023-02-15T07:52:49.957Z,2.60
2023-02-15T07:55:19.506Z,2.50
2023-02-15T07:57:51.798Z,2.50
2023-02-15T08:00:24.411Z,2.60
2023-02-15T08:03:14.164Z,2.60
2023-02-15T08:05:44.397Z,2.70
2023-02-15T08:08:30.634Z,2.70
2023-02-15T08:11:21.348Z,2.70
2023-02-15T08:13:55.700Z,2.80
2023-02-15T08:16:32.321Z,2.80
2023-02-15T08:19:02.796Z,2.90
2023-02-15T08:21:31.984Z,2.90
2023-02-15T08:24:00.955Z,3.00
2023-02-15T08:26:30.148Z,3.00
2023-02-15T08:29:00.788Z,3.00
2023-02-15T08:31:29.929Z,2.90
2023-02-15T08:33:59.171Z,3.00
2023-02-15T08:36:29.711Z,3.10
2023-02-15T08:39:00.230Z,3.00
2023-02-15T08:41:31.259Z,3.00
2023-02-15T08:44:02.785Z,3.10
2023-02-15T08:46:32.377Z,3.10
2023-02-15T08:49:01.479Z,3.10
2023-02-15T08:51:31.458Z,3.10
2023-02-15T08:54:01.137Z,3.20
2023-02-15T08:56:32.779Z,3.20
2023-02-15T08:59:03.168Z,3.10
2023-02-15T09:01:33.890Z,3.00
2023-02-15T09:04:05.156Z,2.90
2023-02-15T09:06:33.784Z,2.80
2023-02-15T09:09:02.490Z,2.90
2023-02-15T09:11:32.078Z,2.90
2023-02-15T09:14:03.492Z,2.80
2023-02-15T09:16:33.525Z,2.90
2023-02-15T09:19:02.962Z,3.10
2023-02-15T09:21:31.468Z,3.30
2023-02-15T09:24:02.031Z,3.40
2023-02-15T09:26:31.675Z,3.40
2023-02-15T09:29:02.468Z,3.60
2023-02-15T09:31:33.458Z,3.70
2023-02-15T09:34:02.904Z,3.80
2023-02-15T09:36:33.364Z,4.00
2023-02-15T09:39:05.147Z,4.10
2023-02-15T09:41:47.220Z,4.10
2023-02-15T09:44:21.996Z,3.90
2023-02-15T09:47:02.000Z,4.10
2023-02-15T09:49:36.517Z,3.90
2023-02-15T09:52:30.585Z,4.10
2023-02-15T09:55:11.781Z,4.30
2023-02-15T09:57:49.278Z,4.50
2023-02-15T10:00:26.609Z,4.60
2023-02-15T10:03:09.943Z,4.70
2023-02-15T10:05:45.929Z,4.70
2023-02-15T10:08:53.879Z,4.60
2023-02-15T10:11:42.649Z,4.50
2023-02-15T10:14:30.219Z,4.40
2023-02-15T10:17:04.391Z,4.60
2023-02-15T10:19:40.520Z,4.70
2023-02-15T10:22:23.184Z,4.70
2023-02-15T10:25:13.050Z,4.70
2023-02-15T10:27:48.250Z,4.80
2023-02-15T10:30:18.019Z,5.00
2023-02-15T10:32:56.202Z,5.00
2023-02-15T10:35:29.998Z,4.90
2023-02-15T10:38:08.590Z,5.00
2023-02-15T10:40:45.132Z,5.00
2023-02-15T10:43:26.050Z,5.10
2023-02-15T10:46:01.281Z,5.20
2023-02-15T10:48:54.429Z,5.40
2023-02-15T10:51:31.641Z,5.40
2023-02-15T10:54:23.475Z,5.50
2023-02-15T10:56:59.560Z,5.60
2023-02-15T10:59:42.903Z,5.70
2023-02-15T11:02:19.652Z,5.80
2023-02-15T11:04:53.418Z,5.90
2023-02-15T11:07:26.445Z,6.00
2023-02-15T11:10:18.407Z,6.10
2023-02-15T11:12:48.096Z,6.20
2023-02-15T11:15:20.661Z,6.20
2023-02-15T11:17:53.381Z,6.20
2023-02-15T11:20:26.825Z,6.30
2023-02-15T11:22:57.896Z,6.50
2023-02-15T11:25:31.128Z,6.40
2023-02-15T11:27:59.517Z,6.40
2023-02-15T11:30:31.409Z,6.60
2023-02-15T11:33:02.934Z,6.60
2023-02-15T11:35:34.438Z,6.80
2023-02-15T11:38:09.612Z,6.80
2023-02-15T11:40:40.956Z,6.90
2023-02-15T11:43:15.214Z,7.00
2023-02-15T11:45:44.905Z,7.10
2023-02-15T11:48:16.143Z,7.10
2023-02-15T11:50:45.701Z,7.10
2023-02-15T11:53:17.420Z,7.20
2023-02-15T11:55:46.868Z,7.30
2023-02-15T11:58:25.263Z,7.50
2023-02-15T12:00:58.693Z,7.60
2023-02-15T12:03:31.911Z,7.70
2023-02-15T12:06:04.047Z,7.80
2023-02-15T12:08:39.771Z,7.90
2023-02-15T12:11:13.341Z,7.90
2023-02-15T12:13:56.536Z,8.00
2023-02-15T12:16:25.154Z,8.10
2023-02-15T12:18:55.140Z,8.10
2023-02-15T12:21:29.648Z,8.10
2023-02-15T12:24:04.826Z,8.20
2023-02-15T12:26:35.296Z,8.30
2023-02-15T12:29:09.671Z,8.40
2023-02-15T12:31:41.271Z,8.50
2023-02-15T12:34:13.807Z,8.50
2023-02-15T12:36:46.731Z,8.60
2023-02-15T12:39:26.643Z,8.70
2023-02-15T12:42:07.655Z,8.70
2023-02-15T12:44:38.731Z,8.70
2023-02-15T12:47:11.719Z,8.80
2023-02-15T12:49:40.477Z,8.80
2023-02-15T12:52:25.876Z,9.00
2023-02-15T12:54:55.677Z,9.10
2023-02-15T12:57:30.022Z,9.10
2023-02-15T12:59:59.775Z,9.10
2023-02-15T13:02:31.151Z,9.00
2023-02-15T13:05:05.698Z,9.20
2023-02-15T13:07:34.223Z,9.20
2023-02-15T13:10:04.146Z,9.30
2023-02-15T13:12:35.126Z,9.30
2023-02-15T13:15:05.658Z,9.40
2023-02-15T13:17:35.710Z,9.40
2023-02-15T13:20:08.372Z,9.50
2023-02-15T13:22:43.190Z,9.50
2023-02-15T13:25:21.240Z,9.60
2023-02-15T13:27:53.814Z,9.50
2023-02-15T13:30:28.089Z,9.60
2023-02-15T13:32:59.908Z,9.70
2023-02-15T13:35:31.403Z,9.60
2023-02-15T13:38:23.113Z,9.50
2023-02-15T13:40:55.873Z,9.70
2023-02-15T13:43:39.626Z,9.80
2023-02-15T13:46:24.187Z,9.80
2023-02-15T13:49:01.222Z,9.70
2023-02-15T13:51:37.392Z,9.70
2023-02-15T13:54:23.862Z,9.60
2023-02-15T13:57:02.877Z,9.60
2023-02-15T13:59:42.797Z,9.60
2023-02-15T14:02:39.997Z,9.60
2023-02-15T14:05:17.655Z,9.60
2023-02-15T14:07:55.657Z,9.50
2023-02-15T14:10:39.135Z,9.40
2023-02-15T14:14:07.702Z,9.30
2023-02-15T14:16:46.493Z,9.30
2023-02-15T14:19:26.995Z,9.30
2023-02-15T14:22:00.153Z,9.30
2023-02-15T14:24:35.721Z,9.20
2023-02-15T14:27:12.170Z,9.10
2023-02-15T14:29:50.592Z,9.10
2023-02-15T14:32:24.590Z,9.00
2023-02-15T14:34:55.301Z,9.00
2023-02-15T14:37:31.997Z,8.90
2023-02-15T14:40:22.717Z,8.90
2023-02-15T14:42:55.811Z,8.90
2023-02-15T14:45:33.268Z,8.80
2023-02-15T14:48:10.536Z,8.80
2023-02-15T14:50:46.889Z,8.70
2023-02-15T14:53:34.355Z,8.70
2023-02-15T14:56:22.361Z,8.60
2023-02-15T14:59:21.013Z,8.50
2023-02-15T15:02:00.344Z,8.40
2023-02-15T15:04:32.371Z,8.30
2023-02-15T15:07:04.784Z,8.30
2023-02-15T15:09:34.196Z,8.20
2023-02-15T15:12:30.756Z,8.10
2023-02-15T15:14:59.188Z,8.00
2023-02-15T15:17:58.205Z,8.00
2023-02-15T15:20:47.899Z,7.90
2023-02-15T15:23:42.637Z,7.80
2023-02-15T15:26:28.558Z,7.70
2023-02-15T15:28:59.175Z,7.50
2023-02-15T15:31:49.356Z,7.50
2023-02-15T15:34:47.909Z,7.40
2023-02-15T15:37:47.212Z,7.40
2023-02-15T15:40:51.571Z,7.30
2023-02-15T15:44:17.439Z,7.20
2023-02-15T15:46:59.707Z,7.10
2023-02-15T15:49:33.015Z,7.00
2023-02-15T15:52:03.423Z,6.90
2023-02-15T15:54:32.709Z,6.80
2023-02-15T15:57:04.443Z,6.80
2023-02-15T15:59:34.894Z,6.60
2023-02-15T16:02:09.546Z,6.60
2023-02-15T16:04:39.530Z,6.50
2023-02-15T16:07:27.616Z,6.40
2023-02-15T16:09:57.469Z,6.30
2023-02-15T16:12:27.496Z,6.20
2023-02-15T16:14:57.443Z,6.20
2023-02-15T16:17:27.444Z,6.10
2023-02-15T16:20:02.692Z,6.00
2023-02-15T16:22:32.162Z,6.00
2023-02-15T16:25:30.459Z,6.00
2023-02-15T16:27:58.970Z,5.90
2023-02-15T16:30:29.991Z,5.80
2023-02-15T16:33:06.947Z,5.80
2023-02-15T16:35:37.716Z,5.70
2023-02-15T16:38:06.785Z,5.70
2023-02-15T16:40:48.682Z,5.60
2023-02-15T16:43:20.826Z,5.50
2023-02-15T16:45:49.704Z,5.30
2023-02-15T16:48:22.790Z,5.20
2023-02-15T16:50:55.076Z,5.20
2023-02-15T16:53:27.496Z,5.10
2023-02-15T16:55:58.014Z,5.10
2023-02-15T16:58:31.104Z,5.10
2023-02-15T17:01:01.329Z,5.00
2023-02-15T17:03:30.253Z,5.00
2023-02-15T17:06:01.003Z,4.90
2023-02-15T17:08:31.999Z,4.80
2023-02-15T17:11:16.211Z,4.80
2023-02-15T17:14:15.336Z,4.70
2023-02-15T17:16:49.989Z,4.60
2023-02-15T17:19:21.760Z,4.50
2023-02-15T17:21:53.824Z,4.40
2023-02-15T17:24:27.899Z,4.40
2023-02-15T17:27:00.925Z,4.30
2023-02-15T17:29:36.238Z,4.30
2023-02-15T17:32:05.948Z,4.20
2023-02-15T17:35:04.274Z,4.10
2023-02-15T17:37:45.061Z,4.10
2023-02-15T17:40:22.532Z,4.00
2023-02-15T17:42:51.020Z,4.00
2023-02-15T17:45:20.056Z,3.90
2023-02-15T17:47:49.732Z,3.90
2023-02-15T17:50:22.533Z,3.90
2023-02-15T17:52:53.146Z,3.90
2023-02-15T17:55:43.585Z,3.80
2023-02-15T17:58:14.015Z,3.80
2023-02-15T18:01:03.593Z,3.70
2023-02-15T18:03:58.265Z,3.60
2023-02-15T18:06:44.932Z,3.60
2023-02-15T18:09:34.608Z,3.60
2023-02-15T18:12:03.528Z,3.50
2023-02-15T18:14:32.803Z,3.40
2023-02-15T18:17:01.365Z,3.40
2023-02-15T18:19:29.989Z,3.30
2023-02-15T18:21:58.518Z,3.20
2023-02-15T18:24:28.437Z,3.20
2023-02-15T18:26:57.000Z,3.10
2023-02-15T18:29:25.472Z,3.10
2023-02-15T18:31:55.556Z,3.10
2023-02-15T18:34:26.914Z,3.00
2023-02-15T18:36:55.647Z,3.00
2023-02-15T18:39:38.135Z,2.90
2023-02-15T18:42:07.161Z,2.90
2023-02-15T18:44:35.637Z,2.90
2023-02-15T18:47:04.320Z,2.80
2023-02-15T18:49:32.857Z,2.80
2023-02-15T18:52:01.501Z,2.80
2023-02-15T18:54:30.320Z,2.70
2023-02-15T18:57:02.540Z,2.60
2023-02-15T18:59:32.513Z,2.60
2023-02-15T19:02:01.385Z,2.50
2023-02-15T19:04:29.966Z,2.50
2023-02-15T19:06:58.570Z,2.40
2023-02-15T19:09:27.907Z,2.40
2023-02-15T19:11:59.830Z,2.40
2023-02-15T19:14:30.163Z,2.40
2023-02-15T19:16:59.851Z,2.40
2023-02-15T19:19:28.983Z,2.40
2023-02-15T19:21:57.934Z,2.40
2023-02-15T19:24:33.900Z,2.30
2023-02-15T19:27:03.961Z,2.30
2023-02-15T19:29:32.815Z,2.20
2023-02-15T19:32:01.344Z,2.20
2023-02-15T19:34:30.070Z,2.20
2023-02-15T19:36:58.566Z,2.20
2023-02-15T19:39:29.599Z,2.10
2023-02-15T19:41:58.074Z,2.10
2023-02-15T19:44:28.340Z,2.10
2023-02-15T19:46:56.799Z,2.10
2023-02-15T19:49:25.339Z,2.10
2023-02-15T19:51:54.073Z,2.10
2023-02-15T19:54:29.401Z,2.10
2023-02-15T19:56:57.832Z,2.00
2023-02-15T19:59:29.793Z,2.00
2023-02-15T20:01:58.755Z,2.00
2023-02-15T20:04:27.831Z,1.90
2023-02-15T20:06:58.190Z,1.80
2023-02-15T20:09:31.297Z,1.80
2023-02-15T20:11:59.817Z,1.80
2023-02-15T20:14:29.754Z,1.70
2023-02-15T20:16:58.176Z,1.70
2023-02-15T20:19:26.687Z,1.70
2023-02-15T20:21:56.481Z,1.70
2023-02-15T20:24:32.840Z,1.70
2023-02-15T20:27:01.441Z,1.70
2023-02-15T20:29:31.289Z,1.60
2023-02-15T20:32:01.419Z,1.60
2023-02-15T20:34:30.153Z,1.50
2023-02-15T20:36:58.982Z,1.50
2023-02-15T20:39:27.684Z,1.50
2023-02-15T20:41:56.107Z,1.50
2023-02-15T20:44:26.702Z,1.40
2023-02-15T20:46:58.162Z,1.40
2023-02-15T20:49:28.121Z,1.30
2023-02-15T20:51:58.384Z,1.30
2023-02-15T20:54:30.275Z,1.40
2023-02-15T20:56:59.237Z,1.40
2023-02-15T20:59:30.574Z,1.40
2023-02-15T21:02:02.988Z,1.40
2023-02-15T21:04:33.750Z,1.50
2023-02-15T21:07:02.457Z,1.50
2023-02-15T21:09:30.902Z,1.50
2023-02-15T21:12:02.266Z,1.50
2023-02-15T21:14:30.898Z,1.50
2023-02-15T21:17:00.956Z,1.50
2023-02-15T21:19:29.422Z,1.50
2023-02-15T21:21:59.730Z,1.50
2023-02-15T21:24:29.588Z,1.50
2023-02-15T21:27:01.543Z,1.50
2023-02-15T21:29:31.456Z,1.40
2023-02-15T21:32:02.450Z,1.40
2023-02-15T21:34:31.268Z,1.40
2023-02-15T21:37:00.570Z,1.40
2023-02-15T21:39:30.981Z,1.40
2023-02-15T21:42:16.829Z,1.40
2023-02-15T21:45:02.502Z,1.40
2023-02-15T21:47:50.290Z,1.40
2023-02-15T21:50:37.686Z,1.30
2023-02-15T21:53:07.355Z,1.30
2023-02-15T21:55:35.785Z,1.20
2023-02-15T21:58:04.522Z,1.10
2023-02-15T22:00:33.862Z,1.20
2023-02-15T22:03:03.660Z,1.50
2023-02-15T22:05:34.370Z,2.50
2023-02-15T22:08:02.797Z,3.50
2023-02-15T22:10:32.511Z,4.40
2023-02-15T22:13:03.881Z,5.00
2023-02-15T22:15:35.948Z,5.40
2023-02-15T22:18:06.741Z,5.10
2023-02-15T22:20:35.225Z,4.60
2023-02-15T22:23:03.667Z,4.20
2023-02-15T22:25:32.183Z,3.70
2023-02-15T22:28:00.814Z,3.40
2023-02-15T22:30:30.843Z,3.20
2023-02-15T22:33:00.118Z,2.90
2023-02-15T22:35:31.459Z,2.70
2023-02-15T22:38:00.540Z,2.60
2023-02-15T22:40:31.406Z,2.50
2023-02-15T22:43:02.257Z,2.40
2023-02-15T22:45:30.849Z,2.30
2023-02-15T22:48:01.196Z,2.30
2023-02-15T22:50:32.421Z,2.30
2023-02-15T22:53:01.763Z,2.20
2023-02-15T22:55:33.739Z,2.10
2023-02-15T22:58:02.323Z,2.00
2023-02-15T23:00:34.007Z,2.00
2023-02-15T23:03:02.763Z,2.00
2023-02-15T23:05:32.859Z,1.90
2023-02-15T23:08:01.360Z,1.90
2023-02-15T23:10:30.536Z,1.90
2023-02-15T23:13:17.897Z,2.00
2023-02-15T23:15:49.791Z,2.10
2023-02-15T23:18:21.103Z,2.10
2023-02-15T23:20:52.833Z,2.10
2023-02-15T23:23:27.496Z,2.10
2023-02-15T23:25:56.000Z,2.00
2023-02-15T23:28:30.504Z,2.00
2023-02-15T23:31:00.198Z,2.00
2023-02-15T23:33:31.633Z,1.90
2023-02-15T23:36:01.499Z,1.90
2023-02-15T23:38:31.419Z,1.80
2023-02-15T23:41:21.124Z,1.80
2023-02-15T23:43:53.044Z,1.80
2023-02-15T23:46:27.785Z,1.90
2023-02-15T23:48:57.058Z,1.90
2023-02-15T23:51:30.800Z,1.80
2023-02-15T23:53:59.704Z,1.80
2023-02-15T23:56:28.220Z,1.80
2023-02-15T23:58:56.652Z,1.70
